Time;durP1;ratioP1;P1;durP2;ratioP2;P2;SDS_P1;SDS_P2;PMS_P1;PMS_P2;Temp;Humidity;BMP_temperature;BMP_pressure;BME280_temperature;BME280_humidity;BME280_pressure;Samples;Min_cycle;Max_cycle;Signal;HPM_P1;HPM_P2
2022/12/11 00:00:45;;;;;;;88.38;52.83;;;-1.20;99.90;;;;;;4969343;28;20047;-77
2022/12/11 00:03:12;;;;;;;83.28;48.50;;;-1.20;99.90;;;;;;4993863;28;20257;-76
2022/12/11 00:05:43;;;;;;;86.80;50.90;;;-1.20;99.90;;;;;;4974441;28;20063;-77
2022/12/11 00:08:10;;;;;;;84.28;51.78;;;-1.30;99.90;;;;;;4962290;28;20060;-76
2022/12/11 00:10:37;;;;;;;83.75;51.17;;;-1.30;99.90;;;;;;4997656;28;20069;-77
2022/12/11 00:13:04;;;;;;;82.00;49.15;;;-1.30;99.90;;;;;;4989869;28;20049;-76
2022/12/11 00:15:31;;;;;;;80.63;48.05;;;-1.30;99.90;;;;;;4999141;28;20069;-76
2022/12/11 00:17:57;;;;;;;86.43;51.15;;;-1.20;99.90;;;;;;4988016;28;20042;-76
2022/12/11 00:20:24;;;;;;;85.78;50.90;;;-1.30;99.90;;;;;;5013162;28;20052;-77
2022/12/11 00:22:51;;;;;;;90.97;55.38;;;-1.20;99.90;;;;;;5012466;28;20102;-77
2022/12/11 00:25:17;;;;;;;90.93;54.30;;;-1.10;99.90;;;;;;5023667;28;20042;-78
2022/12/11 00:27:46;;;;;;;88.55;52.63;;;-1.00;99.90;;;;;;5004850;28;20056;-76
2022/12/11 00:30:13;;;;;;;87.88;52.85;;;-1.10;99.90;;;;;;4988980;28;20337;-76
2022/12/11 00:32:40;;;;;;;89.18;52.63;;;-1.10;99.90;;;;;;4955834;28;20478;-76
2022/12/11 00:35:07;;;;;;;86.90;51.15;;;-1.10;99.90;;;;;;4976318;28;20038;-76
2022/12/11 00:37:34;;;;;;;87.88;50.30;;;-1.20;99.90;;;;;;4989748;28;20046;-76
2022/12/11 00:40:01;;;;;;;91.18;52.05;;;-1.30;99.90;;;;;;4981617;28;20054;-76
2022/12/11 00:42:28;;;;;;;80.55;48.20;;;-1.20;99.90;;;;;;4989121;28;20096;-75
2022/12/11 00:44:55;;;;;;;84.10;49.28;;;-1.30;99.90;;;;;;4967464;28;20038;-76
2022/12/11 00:47:21;;;;;;;88.05;50.58;;;-1.30;99.90;;;;;;4990660;28;20046;-76
2022/12/11 00:49:48;;;;;;;88.00;49.58;;;-1.30;99.90;;;;;;4984880;28;20077;-76
2022/12/11 00:52:16;;;;;;;88.53;50.13;;;-1.30;99.90;;;;;;4982882;28;20046;-76
2022/12/11 00:54:43;;;;;;;90.15;49.20;;;-1.30;99.90;;;;;;4984647;28;20450;-76
2022/12/11 00:57:10;;;;;;;80.68;46.22;;;-1.30;99.90;;;;;;4983883;28;20052;-76
2022/12/11 00:59:37;;;;;;;93.57;50.17;;;-1.30;99.90;;;;;;4986352;28;20155;-78
2022/12/11 01:02:04;;;;;;;86.15;48.22;;;-1.30;99.90;;;;;;4991187;28;20120;-75
2022/12/11 01:04:30;;;;;;;87.88;50.20;;;-1.40;99.90;;;;;;4985777;28;20038;-77
2022/12/11 01:06:57;;;;;;;87.75;49.60;;;-1.40;99.90;;;;;;4986920;28;20049;-76
2022/12/11 01:12:09;;;;;;;;;;;-1.40;99.90;;;;;;4996432;28;20062;-75
2022/12/11 01:14:35;;;;;;;83.65;46.15;;;-1.50;99.90;;;;;;4969165;28;20363;-76
2022/12/11 01:17:02;;;;;;;83.35;46.60;;;-1.50;99.90;;;;;;4986550;28;20045;-77
2022/12/11 01:19:29;;;;;;;88.57;47.85;;;-1.50;99.90;;;;;;4973251;28;20056;-77
2022/12/11 01:21:56;;;;;;;87.88;48.35;;;-1.40;99.90;;;;;;4972404;28;20425;-76
2022/12/11 01:24:22;;;;;;;83.43;46.83;;;-1.40;99.90;;;;;;4996030;28;20538;-76
2022/12/11 01:26:49;;;;;;;85.63;47.15;;;-1.40;99.90;;;;;;4996817;28;20055;-76
2022/12/11 01:29:16;;;;;;;88.07;49.10;;;-1.50;99.90;;;;;;4975043;28;20034;-77
2022/12/11 01:31:43;;;;;;;92.25;49.10;;;-1.50;99.90;;;;;;4990600;28;20038;-76
2022/12/11 01:34:09;;;;;;;90.85;49.75;;;-1.40;99.90;;;;;;4975275;28;20048;-75
2022/12/11 01:36:36;;;;;;;86.75;47.90;;;-1.40;99.90;;;;;;4989408;28;20042;-76
2022/12/11 01:39:03;;;;;;;83.13;48.00;;;-1.40;99.90;;;;;;4977075;28;20088;-76
2022/12/11 01:41:30;;;;;;;87.20;47.28;;;-1.40;99.90;;;;;;4988709;28;20038;-78
2022/12/11 01:44:02;;;;;;;85.70;48.10;;;-1.40;99.90;;;;;;4988688;28;20046;-75
2022/12/11 01:46:31;;;;;;;78.47;44.03;;;-1.40;99.90;;;;;;4982854;28;20534;-76
2022/12/11 01:48:59;;;;;;;86.85;46.33;;;-1.40;99.90;;;;;;4992586;28;20048;-76
2022/12/11 01:51:32;;;;;;;88.93;48.13;;;-1.40;99.90;;;;;;4990744;28;20039;-76
2022/12/11 01:54:09;;;;;;;82.60;45.83;;;-1.40;99.90;;;;;;4986530;28;20050;-76
2022/12/11 01:57:36;;;;;;;86.30;46.97;;;-1.30;99.90;;;;;;4987496;28;20206;-75
2022/12/11 02:00:04;;;;;;;84.10;45.92;;;-1.30;99.90;;;;;;4995852;28;20046;-76
2022/12/11 02:02:38;;;;;;;82.80;47.20;;;-1.30;99.90;;;;;;4967590;28;20668;-77
2022/12/11 02:05:07;;;;;;;95.53;49.50;;;-1.20;99.90;;;;;;4999648;28;20050;-76
2022/12/11 02:07:47;;;;;;;92.47;48.55;;;-1.20;99.90;;;;;;4993070;28;20046;-76
2022/12/11 02:10:14;;;;;;;85.53;46.80;;;-1.30;99.90;;;;;;4964983;28;20084;-76
2022/12/11 02:12:48;;;;;;;80.43;46.08;;;-1.20;99.90;;;;;;4996894;28;20054;-79
2022/12/11 02:15:30;;;;;;;84.75;46.08;;;-1.30;99.90;;;;;;4980848;28;20534;-76
2022/12/11 02:18:17;;;;;;;83.90;48.58;;;-1.30;99.90;;;;;;4979466;28;20124;-76
2022/12/11 02:20:53;;;;;;;85.45;47.20;;;-1.30;99.90;;;;;;4984583;28;20530;-77
2022/12/11 02:23:32;;;;;;;91.40;47.08;;;-1.20;99.90;;;;;;4989704;28;20042;-76
2022/12/11 02:26:11;;;;;;;88.72;47.38;;;-1.20;99.90;;;;;;4975189;28;20045;-77
2022/12/11 02:28:43;;;;;;;87.43;48.17;;;-1.20;99.90;;;;;;4997638;28;20057;-76
2022/12/11 02:31:16;;;;;;;81.88;47.22;;;-1.10;99.90;;;;;;4987410;28;20056;-76
2022/12/11 02:34:06;;;;;;;98.35;51.20;;;-1.10;99.90;;;;;;4990767;28;20360;-75
2022/12/11 02:36:38;;;;;;;95.80;50.65;;;-1.10;99.90;;;;;;4984341;28;20504;-77
2022/12/11 02:39:32;;;;;;;99.82;51.35;;;-1.10;99.90;;;;;;4996893;28;20114;-76
2022/12/11 02:42:00;;;;;;;101.00;53.83;;;-1.10;99.90;;;;;;4966559;28;20138;-77
2022/12/11 02:44:29;;;;;;;103.63;50.92;;;-1.10;99.90;;;;;;4999619;28;20101;-76
2022/12/11 02:46:57;;;;;;;105.32;52.22;;;-1.00;99.90;;;;;;4986606;28;20038;-77
2022/12/11 02:49:26;;;;;;;100.43;51.53;;;-1.00;99.90;;;;;;5001595;28;20046;-76
2022/12/11 02:51:54;;;;;;;96.50;54.45;;;-1.00;99.90;;;;;;4997730;28;20454;-77
2022/12/11 02:54:27;;;;;;;105.05;54.08;;;-1.10;99.90;;;;;;4994393;28;20050;-76
2022/12/11 02:57:10;;;;;;;98.07;51.13;;;-1.10;99.90;;;;;;4984347;28;20049;-75
2022/12/11 02:59:46;;;;;;;107.35;52.47;;;-1.20;99.90;;;;;;4993933;28;20049;-76
2022/12/11 03:02:15;;;;;;;112.97;54.80;;;-1.30;99.90;;;;;;4994425;28;20042;-75
2022/12/11 03:04:43;;;;;;;123.78;55.47;;;-1.30;99.90;;;;;;4991849;28;20077;-75
2022/12/11 03:07:18;;;;;;;115.90;55.10;;;-1.30;99.90;;;;;;4986547;28;20125;-75
2022/12/11 03:09:46;;;;;;;112.57;53.55;;;-1.30;99.90;;;;;;4973779;23;20056;-71
2022/12/11 03:12:18;;;;;;;111.18;51.00;;;-1.30;99.90;;;;;;4997281;28;20046;-71
2022/12/11 03:14:45;;;;;;;115.07;52.60;;;-1.30;99.90;;;;;;4967442;28;20435;-73
2022/12/11 03:17:40;;;;;;;124.50;56.03;;;-1.30;99.90;;;;;;4988351;28;20446;-72
2022/12/11 03:20:16;;;;;;;124.28;53.97;;;-1.30;99.90;;;;;;4978340;28;20195;-72
2022/12/11 03:22:50;;;;;;;116.05;53.67;;;-1.30;99.90;;;;;;4989343;28;20041;-71
2022/12/11 03:25:22;;;;;;;123.85;53.03;;;-1.30;99.90;;;;;;4982004;28;20326;-71
2022/12/11 03:27:55;;;;;;;113.43;50.05;;;-1.30;99.90;;;;;;4985799;28;20136;-71
2022/12/11 03:30:24;;;;;;;134.63;55.30;;;-1.40;99.90;;;;;;4969251;28;20042;-72
2022/12/11 03:32:59;;;;;;;116.07;50.30;;;-1.40;99.90;;;;;;4979265;28;20536;-72
2022/12/11 03:35:37;;;;;;;118.22;52.05;;;-1.40;99.90;;;;;;4987031;28;20124;-71
2022/12/11 03:38:30;;;;;;;109.85;47.70;;;-1.40;99.90;;;;;;4982814;28;21587;-72
2022/12/11 03:41:01;;;;;;;104.00;48.53;;;-1.40;99.90;;;;;;4970806;28;20056;-72
2022/12/11 03:43:30;;;;;;;116.22;48.30;;;-1.40;99.90;;;;;;4985263;28;20273;-71
2022/12/11 03:45:59;;;;;;;104.82;45.75;;;-1.40;99.90;;;;;;4981836;28;20415;-71
2022/12/11 03:48:30;;;;;;;113.38;47.45;;;-1.50;99.90;;;;;;4991727;28;20068;-69
2022/12/11 03:50:59;;;;;;;108.75;48.90;;;-1.50;99.90;;;;;;4982889;23;20121;-74
2022/12/11 03:53:26;;;;;;;114.43;45.55;;;-1.40;99.90;;;;;;5006457;28;20053;-74
2022/12/11 03:55:57;;;;;;;106.97;46.65;;;-1.40;99.90;;;;;;4995535;28;20503;-74
2022/12/11 03:58:23;;;;;;;114.38;47.58;;;-1.40;99.90;;;;;;4999513;28;20037;-73
2022/12/11 04:00:50;;;;;;;112.53;46.38;;;-1.40;99.90;;;;;;5018946;28;20701;-74
2022/12/11 04:03:17;;;;;;;124.38;50.03;;;-1.40;99.90;;;;;;5025220;28;20450;-74
2022/12/11 04:05:49;;;;;;;133.00;49.17;;;-1.40;99.90;;;;;;5020817;28;20211;-74
2022/12/11 04:08:19;;;;;;;121.03;43.83;;;-1.40;99.90;;;;;;5019635;28;20131;-75
2022/12/11 04:10:47;;;;;;;139.02;47.05;;;-1.40;99.90;;;;;;5030091;28;20169;-74
2022/12/11 04:13:14;;;;;;;121.13;48.25;;;-1.40;99.90;;;;;;5014983;28;20896;-74
2022/12/11 04:15:40;;;;;;;121.47;49.78;;;-1.40;99.90;;;;;;5007706;28;20124;-74
2022/12/11 04:26:26;;;;;;;152.32;50.42;;;-1.40;99.90;;;;;;5009716;28;20323;-76
2022/12/11 04:28:53;;;;;;;150.98;50.25;;;-1.40;99.90;;;;;;5021667;28;20051;-74
2022/12/11 04:31:21;;;;;;;160.38;50.38;;;-1.40;99.90;;;;;;5031673;28;20048;-73
2022/12/11 04:33:48;;;;;;;142.05;50.88;;;-1.40;99.90;;;;;;5035933;28;20411;-73
2022/12/11 04:36:15;;;;;;;146.70;50.58;;;-1.30;99.90;;;;;;5014678;28;20041;-73
2022/12/11 04:38:41;;;;;;;198.73;53.50;;;-1.40;99.90;;;;;;5010417;28;20090;-73
2022/12/11 04:41:10;;;;;;;199.98;54.53;;;-1.40;99.90;;;;;;5000741;28;20466;-73
2022/12/11 04:43:37;;;;;;;160.60;48.58;;;-1.30;99.90;;;;;;5021704;28;20119;-73
2022/12/11 04:46:13;;;;;;;176.00;52.17;;;-1.30;99.90;;;;;;5018290;28;20033;-73
2022/12/11 04:48:40;;;;;;;186.10;51.60;;;-1.30;99.90;;;;;;5016569;28;20049;-73
2022/12/11 04:51:08;;;;;;;182.60;52.35;;;-1.30;99.90;;;;;;5013375;28;20041;-75
2022/12/11 04:53:36;;;;;;;178.90;52.47;;;-1.30;99.90;;;;;;5025602;28;20049;-76
2022/12/11 04:56:07;;;;;;;203.32;53.10;;;-1.40;99.90;;;;;;5005173;28;20033;-74
2022/12/11 04:58:35;;;;;;;205.95;53.08;;;-1.30;99.90;;;;;;5021712;28;20048;-73
2022/12/11 05:01:16;;;;;;;200.07;52.88;;;-1.30;99.90;;;;;;4998964;28;20041;-73
2022/12/11 05:03:43;;;;;;;192.05;53.70;;;-1.30;99.90;;;;;;5022985;28;20042;-72
2022/12/11 05:06:10;;;;;;;215.48;54.05;;;-1.30;99.90;;;;;;4981926;28;20291;-73
2022/12/11 05:08:39;;;;;;;211.18;52.92;;;-1.30;99.90;;;;;;5018879;28;20091;-73
2022/12/11 05:11:09;;;;;;;193.32;51.47;;;-1.20;99.90;;;;;;4993425;28;20048;-73
2022/12/11 05:13:36;;;;;;;206.55;55.08;;;-1.30;99.90;;;;;;5018185;28;20399;-75
2022/12/11 05:16:04;;;;;;;221.93;59.50;;;-1.20;99.90;;;;;;5029491;28;20206;-73
2022/12/11 05:18:31;;;;;;;226.35;59.65;;;-1.20;99.90;;;;;;5027662;28;20048;-73
2022/12/11 05:21:01;;;;;;;222.43;59.00;;;-1.10;99.90;;;;;;5018301;28;20041;-74
2022/12/11 05:23:28;;;;;;;217.95;59.25;;;-1.10;99.90;;;;;;5024070;28;20042;-73
2022/12/11 05:25:58;;;;;;;224.98;59.70;;;-1.10;99.90;;;;;;5017846;28;20383;-74
2022/12/11 05:28:27;;;;;;;193.73;57.50;;;-1.00;99.90;;;;;;5028949;28;20037;-73
2022/12/11 05:30:55;;;;;;;207.20;54.70;;;-1.00;99.90;;;;;;5022233;28;20037;-74
2022/12/11 05:33:22;;;;;;;198.23;56.13;;;-1.10;99.90;;;;;;5021690;28;20418;-73
2022/12/11 05:35:49;;;;;;;222.80;58.25;;;-1.20;99.90;;;;;;5030165;28;20037;-73
2022/12/11 05:38:16;;;;;;;195.45;56.85;;;-1.00;99.90;;;;;;5019030;28;20262;-73
2022/12/11 05:40:42;;;;;;;223.20;60.63;;;-1.10;99.90;;;;;;5024521;28;20052;-73
2022/12/11 05:43:09;;;;;;;219.18;55.67;;;-1.10;99.90;;;;;;5006640;28;20045;-74
2022/12/11 05:45:36;;;;;;;225.35;57.95;;;-1.10;99.90;;;;;;5022631;28;20038;-73
2022/12/11 05:48:03;;;;;;;205.88;53.80;;;-1.10;99.90;;;;;;5018494;28;20045;-73
2022/12/11 05:50:29;;;;;;;256.38;59.45;;;-1.10;99.90;;;;;;5026176;28;20060;-73
2022/12/11 05:52:56;;;;;;;209.63;57.17;;;-1.10;99.90;;;;;;5005750;28;20063;-74
2022/12/11 05:55:23;;;;;;;202.45;54.90;;;-1.20;99.90;;;;;;5025212;28;20124;-73
2022/12/11 05:57:49;;;;;;;213.95;58.25;;;-1.10;99.90;;;;;;5019794;28;20041;-72
2022/12/11 06:00:16;;;;;;;203.10;57.90;;;-1.10;99.90;;;;;;5002348;28;20068;-73
2022/12/11 06:02:43;;;;;;;228.82;54.47;;;-1.10;99.90;;;;;;4995534;28;20503;-73
2022/12/11 06:05:09;;;;;;;186.60;54.78;;;-1.00;99.90;;;;;;5015528;28;20049;-73
2022/12/11 06:07:36;;;;;;;239.32;61.03;;;-1.00;99.90;;;;;;5020068;28;20079;-73
2022/12/11 06:10:03;;;;;;;182.30;51.92;;;-1.00;99.90;;;;;;5003617;28;20048;-73
2022/12/11 06:12:30;;;;;;;188.82;49.58;;;-1.00;99.90;;;;;;5031768;28;20045;-73
2022/12/11 06:14:57;;;;;;;189.30;51.42;;;-1.00;99.90;;;;;;4995935;28;20406;-73
2022/12/11 06:17:24;;;;;;;182.30;53.50;;;-1.00;99.90;;;;;;5034402;28;20037;-72
2022/12/11 06:19:50;;;;;;;181.48;52.78;;;-0.90;99.90;;;;;;5010281;28;20050;-73
2022/12/11 06:22:17;;;;;;;216.27;52.65;;;-0.90;99.90;;;;;;5032148;28;20053;-73
2022/12/11 06:24:43;;;;;;;181.05;51.40;;;-0.90;99.90;;;;;;5029734;28;20418;-73
2022/12/11 06:27:10;;;;;;;171.27;54.10;;;-1.00;99.90;;;;;;5009188;28;20040;-73
2022/12/11 06:29:37;;;;;;;183.80;54.08;;;-0.90;99.90;;;;;;5031419;28;20045;-73
2022/12/11 06:32:03;;;;;;;192.45;52.42;;;-0.90;99.90;;;;;;5020794;28;20041;-73
2022/12/11 06:34:30;;;;;;;185.63;54.35;;;-0.90;99.90;;;;;;5030255;28;20057;-73
2022/12/11 06:36:57;;;;;;;190.00;52.70;;;-0.90;99.90;;;;;;5020392;28;20359;-73
2022/12/11 06:39:24;;;;;;;179.68;52.53;;;-0.80;99.90;;;;;;5003165;28;20048;-72
2022/12/11 06:41:50;;;;;;;197.60;54.90;;;-0.90;99.90;;;;;;4994840;28;20472;-73
2022/12/11 06:44:17;;;;;;;195.65;55.22;;;-0.90;99.90;;;;;;5023877;28;20037;-73
2022/12/11 06:46:44;;;;;;;203.25;55.45;;;-0.90;99.90;;;;;;5004045;28;20290;-74
2022/12/11 06:49:10;;;;;;;186.02;52.92;;;-0.90;99.90;;;;;;5021060;28;20046;-73
2022/12/11 06:51:37;;;;;;;194.88;51.75;;;-0.90;99.90;;;;;;5000123;28;20511;-73
2022/12/11 06:54:03;;;;;;;216.10;56.45;;;-0.90;99.90;;;;;;5020431;28;20407;-73
2022/12/11 06:56:33;;;;;;;190.95;53.75;;;-0.90;99.90;;;;;;5025448;28;20049;-73
2022/12/11 06:59:00;;;;;;;217.32;55.13;;;-0.90;99.90;;;;;;5008897;28;20045;-73
2022/12/11 07:01:33;;;;;;;201.82;53.05;;;-0.90;99.90;;;;;;5008601;28;20041;-73
2022/12/11 07:03:59;;;;;;;196.07;54.92;;;-0.90;99.90;;;;;;5026177;28;20040;-73
2022/12/11 07:06:28;;;;;;;194.90;51.75;;;-0.90;99.90;;;;;;5011736;28;20251;-74
2022/12/11 07:08:55;;;;;;;210.45;55.50;;;-0.90;99.90;;;;;;5017791;28;20033;-74
2022/12/11 07:11:22;;;;;;;208.55;61.38;;;-0.90;99.90;;;;;;5007386;28;20041;-73
2022/12/11 07:13:49;;;;;;;222.80;61.90;;;-0.80;99.90;;;;;;5031939;28;20076;-73
2022/12/11 07:16:17;;;;;;;210.73;59.78;;;-0.70;99.90;;;;;;5014359;28;20041;-75
2022/12/11 07:18:47;;;;;;;224.50;60.28;;;-0.70;99.90;;;;;;5021874;28;20040;-73
2022/12/11 07:21:14;;;;;;;211.88;55.22;;;-0.70;99.90;;;;;;5019010;28;20029;-74
2022/12/11 07:23:41;;;;;;;215.70;58.22;;;-0.70;99.90;;;;;;5002684;28;20042;-74
2022/12/11 07:26:15;;;;;;;196.73;57.17;;;-0.90;99.90;;;;;;5018343;28;20546;-74
2022/12/11 07:28:42;;;;;;;209.53;56.73;;;-0.90;99.90;;;;;;5010218;28;20303;-74
2022/12/11 07:31:12;;;;;;;210.95;54.80;;;-0.80;99.90;;;;;;5017222;28;20962;-73
2022/12/11 07:33:39;;;;;;;212.93;59.38;;;-0.70;99.90;;;;;;5024667;28;20044;-74
2022/12/11 07:36:08;;;;;;;229.68;58.72;;;-0.60;99.90;;;;;;5024998;28;20048;-74
2022/12/11 07:38:35;;;;;;;216.80;60.90;;;-0.60;99.90;;;;;;5024329;28;20072;-73
2022/12/11 07:41:09;;;;;;;208.52;61.13;;;-0.50;99.90;;;;;;5020100;28;20037;-74
2022/12/11 07:43:36;;;;;;;211.33;60.27;;;-0.50;99.90;;;;;;5027697;28;20242;-73
2022/12/11 07:46:05;;;;;;;226.65;68.53;;;-0.60;99.90;;;;;;5001956;28;20043;-73
2022/12/11 07:48:34;;;;;;;228.90;65.57;;;-0.50;99.90;;;;;;5029072;28;20271;-73
2022/12/11 07:51:16;;;;;;;225.93;64.43;;;-0.50;99.90;;;;;;5023747;28;20423;-72
2022/12/11 07:53:48;;;;;;;200.85;60.63;;;-0.50;99.90;;;;;;5028717;28;20049;-73
2022/12/11 07:56:16;;;;;;;226.13;62.53;;;-0.50;99.90;;;;;;5009856;28;20044;-73
2022/12/11 07:58:44;;;;;;;214.32;60.15;;;-0.50;99.90;;;;;;5026874;28;20048;-73
2022/12/11 08:01:19;;;;;;;209.48;64.15;;;-0.50;99.90;;;;;;5003110;28;20398;-73
2022/12/11 08:03:46;;;;;;;209.80;65.00;;;-0.50;99.90;;;;;;5005930;28;20209;-73
2022/12/11 08:06:13;;;;;;;191.27;63.92;;;-0.50;99.90;;;;;;5003291;28;20454;-75
2022/12/11 08:08:40;;;;;;;215.40;63.28;;;-0.40;99.90;;;;;;5008490;28;20049;-73
2022/12/11 08:11:11;;;;;;;183.02;60.25;;;-0.40;99.90;;;;;;5019492;28;20505;-73
2022/12/11 08:13:38;;;;;;;198.77;63.22;;;-0.40;99.90;;;;;;5003826;28;20041;-72
2022/12/11 08:16:07;;;;;;;174.20;52.67;;;-0.40;99.90;;;;;;5007519;28;20049;-75
2022/12/11 08:18:35;;;;;;;164.55;61.30;;;-0.50;99.90;;;;;;5019812;28;20049;-75
2022/12/11 08:21:11;;;;;;;160.57;55.35;;;-0.60;99.90;;;;;;5003403;28;20041;-74
2022/12/11 08:23:37;;;;;;;163.73;57.85;;;-0.60;99.90;;;;;;5019393;28;20045;-74
2022/12/11 08:26:06;;;;;;;151.70;54.15;;;-0.60;99.90;;;;;;5001275;28;20033;-75
2022/12/11 08:28:33;;;;;;;164.40;54.53;;;-0.60;99.90;;;;;;5020359;28;20080;-74
2022/12/11 08:31:07;;;;;;;163.65;51.63;;;-0.60;99.90;;;;;;5004427;28;20061;-75
2022/12/11 08:33:35;;;;;;;137.05;48.00;;;-0.60;99.90;;;;;;5011186;28;20049;-73
2022/12/11 08:36:07;;;;;;;120.55;49.42;;;-0.60;99.90;;;;;;5006953;28;20037;-74
2022/12/11 08:38:34;;;;;;;125.72;51.28;;;-0.50;99.90;;;;;;5028182;28;20120;-73
2022/12/11 08:41:12;;;;;;;139.00;49.42;;;-0.50;99.90;;;;;;5023871;28;20033;-73
2022/12/11 08:43:39;;;;;;;137.82;50.05;;;-0.60;99.90;;;;;;4987404;28;20521;-73
2022/12/11 08:46:07;;;;;;;145.70;52.53;;;-0.60;99.90;;;;;;5030320;28;20044;-75
2022/12/11 08:48:35;;;;;;;153.13;57.45;;;-0.70;99.90;;;;;;5028808;28;20049;-75
2022/12/11 08:51:06;;;;;;;140.35;50.10;;;-0.70;99.90;;;;;;5017459;28;20037;-75
2022/12/11 08:53:33;;;;;;;135.73;50.42;;;-0.80;99.90;;;;;;5025419;28;20050;-73
2022/12/11 08:56:06;;;;;;;136.05;47.60;;;-0.80;99.90;;;;;;5029579;28;20037;-73
2022/12/11 08:58:33;;;;;;;143.35;52.30;;;-0.70;99.90;;;;;;5012025;28;20349;-73
2022/12/11 09:01:08;;;;;;;141.27;50.38;;;-0.70;99.90;;;;;;5021159;28;20525;-74
2022/12/11 09:03:36;;;;;;;136.02;49.63;;;-0.70;99.90;;;;;;5004229;28;20589;-74
2022/12/11 09:06:08;;;;;;;129.52;49.00;;;-0.70;99.90;;;;;;5018634;28;20048;-76
2022/12/11 09:08:35;;;;;;;116.70;45.42;;;-0.60;99.90;;;;;;5025523;28;20045;-74
2022/12/11 09:11:11;;;;;;;115.72;47.72;;;-0.50;99.90;;;;;;5002440;28;20044;-76
2022/12/11 09:13:38;;;;;;;102.55;47.78;;;-0.60;99.90;;;;;;5024093;28;20076;-76
2022/12/11 09:16:11;;;;;;;98.57;44.50;;;-0.60;99.90;;;;;;5019923;28;20036;-76
2022/12/11 09:18:39;;;;;;;115.57;48.00;;;-0.50;99.90;;;;;;5020597;28;20049;-75
2022/12/11 09:21:08;;;;;;;108.63;50.20;;;-0.50;99.90;;;;;;5002297;28;20047;-75
2022/12/11 09:23:35;;;;;;;115.30;49.67;;;-0.60;99.90;;;;;;4988556;28;20107;-75
2022/12/11 09:26:06;;;;;;;112.80;48.75;;;-0.60;99.90;;;;;;5027374;28;20052;-75
2022/12/11 09:28:33;;;;;;;107.85;44.47;;;-0.60;99.90;;;;;;5032305;28;20060;-74
2022/12/11 09:31:00;;;;;;;106.13;46.65;;;-0.60;99.90;;;;;;5015660;28;20040;-74
2022/12/11 09:33:27;;;;;;;99.65;46.38;;;-0.60;99.90;;;;;;5026615;28;20103;-76
2022/12/11 09:36:01;;;;;;;101.05;46.83;;;-0.60;99.90;;;;;;5017728;28;20132;-75
2022/12/11 09:38:29;;;;;;;99.88;48.63;;;-0.60;99.90;;;;;;5015683;28;20146;-75
2022/12/11 09:40:55;;;;;;;102.97;45.95;;;-0.60;99.90;;;;;;5024208;28;20040;-75
2022/12/11 09:43:38;;;;;;;119.88;52.38;;;-0.70;99.90;;;;;;5025058;28;20060;-75
2022/12/11 09:46:10;;;;;;;121.78;54.17;;;-0.60;99.90;;;;;;5005254;28;20052;-76
2022/12/11 09:48:38;;;;;;;111.20;45.53;;;-0.60;99.90;;;;;;5007216;28;20064;-76
2022/12/11 09:51:32;;;;;;;108.53;45.88;;;-0.70;99.90;;;;;;5042951;23;20046;-79
2022/12/11 09:54:02;;;;;;;94.63;44.08;;;-0.70;99.90;;;;;;4965976;28;20042;-79
2022/12/11 09:56:40;;;;;;;126.30;51.15;;;-0.60;99.90;;;;;;4996803;28;20493;-79
2022/12/11 09:59:21;;;;;;;128.25;51.88;;;-0.60;99.90;;;;;;4996299;28;20046;-79
2022/12/11 10:02:02;;;;;;;123.10;53.33;;;-0.50;99.90;;;;;;4990721;28;20042;-77
2022/12/11 10:04:34;;;;;;;119.18;52.65;;;-0.50;99.90;;;;;;4975184;28;20075;-79
2022/12/11 10:07:12;;;;;;;117.78;52.00;;;-0.40;99.90;;;;;;4972389;28;20050;-78
2022/12/11 10:09:47;;;;;;;103.20;48.08;;;-0.30;99.90;;;;;;4975611;28;20054;-78
2022/12/11 10:12:25;;;;;;;105.57;48.83;;;-0.30;99.90;;;;;;4975175;28;20503;-78
2022/12/11 10:14:58;;;;;;;108.97;49.08;;;-0.20;99.90;;;;;;4981261;28;20469;-78
2022/12/11 10:17:29;;;;;;;102.45;49.17;;;-0.20;99.90;;;;;;4981597;28;20069;-78
2022/12/11 10:20:05;;;;;;;92.47;46.80;;;-0.30;99.90;;;;;;4993947;28;20042;-77
2022/12/11 10:22:33;;;;;;;107.25;50.47;;;-0.40;99.90;;;;;;4952513;28;20050;-78
2022/12/11 10:25:12;;;;;;;102.38;48.00;;;-0.50;99.90;;;;;;4986637;28;20038;-78
2022/12/11 10:27:40;;;;;;;105.28;49.63;;;-0.50;99.90;;;;;;5004424;28;20112;-78
2022/12/11 10:30:18;;;;;;;100.15;45.95;;;-0.50;99.90;;;;;;4976796;28;20057;-79
2022/12/11 10:32:53;;;;;;;93.55;48.33;;;-0.70;99.90;;;;;;4976050;28;20445;-78
2022/12/11 10:35:32;;;;;;;96.47;46.13;;;-0.60;99.90;;;;;;4981081;28;20049;-78
2022/12/11 10:38:31;;;;;;;94.35;45.20;;;-0.60;99.90;;;;;;4965443;28;20495;-79
2022/12/11 10:41:01;;;;;;;100.65;47.83;;;-0.60;99.90;;;;;;4967668;28;20097;-77
2022/12/11 10:43:32;;;;;;;110.78;49.08;;;-0.60;99.90;;;;;;4956993;28;20495;-79
2022/12/11 10:45:59;;;;;;;98.25;46.17;;;-0.40;99.90;;;;;;4977122;28;20161;-78
2022/12/11 10:48:26;;;;;;;99.50;45.85;;;-0.40;99.90;;;;;;4998692;28;20092;-77
2022/12/11 10:50:57;;;;;;;90.13;46.35;;;-0.40;99.90;;;;;;4977570;28;20038;-79
2022/12/11 10:53:25;;;;;;;89.65;49.10;;;-0.30;99.90;;;;;;4980919;28;20054;-79
2022/12/11 10:55:52;;;;;;;90.90;49.13;;;-0.30;99.90;;;;;;4961550;28;20411;-77
2022/12/11 10:58:22;;;;;;;96.45;50.03;;;-0.30;99.90;;;;;;4976511;28;20049;-79
2022/12/11 11:01:14;;;;;;;87.32;47.60;;;-0.30;99.90;;;;;;4975559;28;20640;-78
2022/12/11 11:04:03;;;;;;;81.68;49.70;;;-0.30;99.90;;;;;;4973053;28;20104;-78
2022/12/11 11:06:30;;;;;;;87.10;48.63;;;-0.30;99.90;;;;;;4986404;28;20480;-78
2022/12/11 11:08:59;;;;;;;81.43;48.33;;;-0.20;99.90;;;;;;4975638;28;20046;-77
2022/12/11 11:11:38;;;;;;;86.68;50.20;;;-0.10;99.90;;;;;;4972152;28;20108;-78
2022/12/11 11:14:12;;;;;;;82.40;50.53;;;-0.10;99.90;;;;;;4990988;28;20060;-78
2022/12/11 11:16:41;;;;;;;81.25;52.80;;;-0.10;99.90;;;;;;4956919;28;20675;-77
2022/12/11 11:19:25;;;;;;;100.85;57.17;;;-0.10;99.90;;;;;;4976161;28;20558;-76
2022/12/11 11:21:59;;;;;;;98.53;57.70;;;-0.10;99.90;;;;;;4982690;28;20038;-76
2022/12/11 11:24:33;;;;;;;102.60;59.42;;;-0.10;99.90;;;;;;4974442;28;20058;-78
2022/12/11 11:27:00;;;;;;;86.75;56.55;;;0.00;99.90;;;;;;4980820;28;20053;-78
2022/12/11 11:29:40;;;;;;;84.80;55.83;;;0.00;99.90;;;;;;4992836;28;20142;-79
2022/12/11 11:32:18;;;;;;;98.78;57.50;;;0.00;99.90;;;;;;4972517;28;20045;-80
2022/12/11 11:34:45;;;;;;;92.50;57.13;;;0.10;99.90;;;;;;4989872;28;20045;-79
2022/12/11 11:37:24;;;;;;;88.53;55.20;;;0.00;99.90;;;;;;4994812;28;20050;-75
2022/12/11 11:39:56;;;;;;;92.70;55.72;;;0.00;99.90;;;;;;4993075;28;20081;-75
2022/12/11 11:42:36;;;;;;;93.03;54.75;;;-0.10;99.90;;;;;;4992519;28;20031;-76
2022/12/11 11:45:15;;;;;;;95.32;55.05;;;0.10;99.90;;;;;;4970894;28;20049;-76
2022/12/11 11:48:02;;;;;;;99.32;53.00;;;0.20;99.90;;;;;;4962723;28;20265;-76
2022/12/11 11:50:43;;;;;;;94.35;53.53;;;0.10;99.90;;;;;;4969435;28;20509;-76
2022/12/11 11:53:30;;;;;;;94.43;53.70;;;0.00;99.90;;;;;;4973156;28;20247;-76
2022/12/11 11:56:15;;;;;;;97.53;51.28;;;0.00;99.90;;;;;;4978150;28;20053;-75
2022/12/11 11:59:12;;;;;;;102.65;54.10;;;0.10;99.90;;;;;;4972054;28;20042;-76
2022/12/11 12:01:42;;;;;;;92.28;49.78;;;0.20;99.90;;;;;;4972507;28;20531;-75
2022/12/11 12:04:10;;;;;;;100.68;53.60;;;0.10;99.90;;;;;;4989420;28;20456;-79
2022/12/11 12:07:03;;;;;;;102.95;52.63;;;0.00;99.90;;;;;;4988211;28;20049;-79
2022/12/11 12:09:52;;;;;;;113.65;51.35;;;-0.10;99.90;;;;;;5055856;27;20397;-71
2022/12/11 12:12:37;;;;;;;96.40;47.85;;;-0.20;99.90;;;;;;5050694;27;20121;-70
2022/12/11 12:15:19;;;;;;;;;;;-0.30;99.90;;;;;;5044723;28;20604;-71
2022/12/11 12:17:54;;;;;;;91.57;48.08;;;-0.30;99.90;;;;;;5036158;28;19921;-71
2022/12/11 12:20:31;;;;;;;90.97;48.72;;;-0.30;99.90;;;;;;5035593;28;20040;-71
2022/12/11 12:23:24;;;;;;;118.25;52.33;;;-0.30;99.90;;;;;;5033064;28;20143;-71
2022/12/11 12:26:10;;;;;;;101.63;51.65;;;-0.30;99.90;;;;;;5029174;28;20223;-70
2022/12/11 12:28:56;;;;;;;102.57;51.70;;;-0.30;99.90;;;;;;5062615;28;20127;-71
2022/12/11 12:31:22;;;;;;;96.20;46.40;;;-0.20;99.90;;;;;;5032250;28;20043;-71
2022/12/11 12:34:15;;;;;;;102.30;46.50;;;-0.20;99.90;;;;;;5029814;28;20503;-70
2022/12/11 12:37:10;;;;;;;86.78;44.58;;;-0.20;99.90;;;;;;5046725;28;20438;-71
2022/12/11 12:40:16;;;;;;;88.60;48.55;;;-0.30;99.90;;;;;;5029444;28;20072;-71
2022/12/11 12:42:52;;;;;;;;;;;-0.30;99.90;;;;;;5030978;28;20052;-71
2022/12/11 12:45:52;;;;;;;88.07;45.88;;;-0.20;99.90;;;;;;5023443;28;19925;-71
2022/12/11 12:48:21;;;;;;;98.65;48.85;;;-0.20;99.90;;;;;;5066363;28;20040;-71
2022/12/11 12:50:49;;;;;;;91.45;45.58;;;-0.20;99.90;;;;;;5031948;28;20040;-71
2022/12/11 12:53:23;;;;;;;99.88;48.08;;;-0.20;99.90;;;;;;5029201;28;20157;-71
2022/12/11 12:55:51;;;;;;;89.32;47.80;;;-0.30;99.90;;;;;;5029963;28;20054;-71